Time;durP1;ratioP1;P1;durP2;ratioP2;P2;SDS_P1;SDS_P2;PMS_P1;PMS_P2;Temp;Humidity;BMP_temperature;BMP_pressure;BME280_temperature;BME280_humidity;BME280_pressure;Samples;Min_cycle;Max_cycle;Signal;HPM_P1;HPM_P2
2022/12/01 00:00:45;;;;;;;39.50;26.13;;;;;;;5.80;100.00;102579.63;5254602;28;20021;-69
2022/12/01 00:03:17;;;;;;;36.37;25.23;;;;;;;5.77;100.00;102577.06;5254188;28;20037;-68
2022/12/01 00:06:03;;;;;;;39.60;24.97;;;;;;;5.91;100.00;102578.63;5246207;28;20030;-69
2022/12/01 00:08:34;;;;;;;37.20;26.37;;;;;;;5.79;100.00;102572.72;5249744;28;20724;-69
2022/12/01 00:11:09;;;;;;;37.93;26.30;;;;;;;5.85;100.00;102578.72;5243554;28;20048;-69
2022/12/01 00:13:40;;;;;;;39.83;25.45;;;;;;;5.76;100.00;102570.13;5248947;28;20029;-69
2022/12/01 00:16:14;;;;;;;37.50;24.80;;;;;;;5.76;100.00;102564.91;5253764;28;20570;-69
2022/12/01 00:18:52;;;;;;;36.73;25.87;;;;;;;5.84;100.00;102569.16;5240700;28;20021;-68
2022/12/01 00:21:24;;;;;;;37.53;25.23;;;;;;;5.81;100.00;102565.72;5254210;28;20024;-70
2022/12/01 00:23:57;;;;;;;37.03;25.13;;;;;;;5.86;100.00;102565.69;5253730;28;20029;-69
2022/12/01 00:26:28;;;;;;;35.13;23.90;;;;;;;5.80;100.00;102566.63;5252008;28;20065;-69
2022/12/01 00:28:59;;;;;;;37.17;25.80;;;;;;;5.79;100.00;102562.31;5252921;28;20050;-68
2022/12/01 00:31:30;;;;;;;36.17;25.37;;;;;;;5.76;100.00;102570.13;5252269;28;20515;-68
2022/12/01 00:34:02;;;;;;;40.83;26.83;;;;;;;5.84;100.00;102571.78;5251353;28;20507;-69
2022/12/01 00:36:33;;;;;;;37.80;25.00;;;;;;;5.83;100.00;102563.09;5253034;28;20029;-69
2022/12/01 00:39:04;;;;;;;41.17;25.70;;;;;;;5.84;100.00;102566.56;5250454;28;20403;-70
2022/12/01 00:41:36;;;;;;;37.90;25.33;;;;;;;5.84;100.00;102569.16;5251856;28;20086;-69
2022/12/01 00:44:07;;;;;;;43.87;27.60;;;;;;;5.74;100.00;102569.25;5246050;28;20028;-69
2022/12/01 00:46:38;;;;;;;40.23;27.67;;;;;;;5.86;100.00;102570.03;5253644;28;20086;-68
2022/12/01 00:49:13;;;;;;;43.00;27.03;;;;;;;5.83;100.00;102570.91;5253150;28;20033;-70
2022/12/01 00:51:44;;;;;;;39.43;26.77;;;;;;;5.76;100.00;102564.91;5252892;28;20391;-70
2022/12/01 00:54:16;;;;;;;45.90;28.77;;;;;;;5.76;100.00;102571.88;5249223;28;20024;-68
2022/12/01 00:56:47;;;;;;;45.90;28.67;;;;;;;5.75;100.00;102572.75;5251405;28;20096;-69
2022/12/01 00:59:18;;;;;;;49.03;28.90;;;;;;;5.79;100.00;102570.09;5253385;28;20116;-69
2022/12/01 01:01:50;;;;;;;48.93;29.47;;;;;;;5.74;100.00;102566.66;5237603;28;20022;-68
2022/12/01 01:04:21;;;;;;;46.37;28.87;;;;;;;5.83;100.00;102570.06;5232168;28;20025;-68
2022/12/01 01:06:53;;;;;;;49.80;30.27;;;;;;;5.79;100.00;102577.91;5233269;28;20052;-67
2022/12/01 01:09:24;;;;;;;47.87;28.80;;;;;;;5.83;100.00;102575.25;5250016;28;20044;-67
2022/12/01 01:11:56;;;;;;;54.77;30.77;;;;;;;5.76;100.00;102580.53;5221646;28;20120;-67
2022/12/01 01:14:27;;;;;;;52.33;31.27;;;;;;;5.77;100.00;102582.25;5240877;28;20048;-67
2022/12/01 01:16:58;;;;;;;63.23;34.13;;;;;;;5.70;100.00;102580.59;5246300;28;20045;-67
2022/12/01 01:19:29;;;;;;;53.07;29.93;;;;;;;5.71;100.00;102579.72;5239844;28;20065;-69
2022/12/01 01:22:01;;;;;;;54.03;31.47;;;;;;;5.73;100.00;102574.50;5238605;28;20036;-70
2022/12/01 01:24:32;;;;;;;58.90;32.47;;;;;;;5.74;100.00;102587.47;5251129;28;20415;-67
2022/12/01 01:27:04;;;;;;;54.30;28.90;;;;;;;5.68;100.00;102587.53;5239144;28;20025;-68
2022/12/01 01:29:36;;;;;;;56.30;31.83;;;;;;;5.76;100.00;102598.72;5234292;28;20121;-68
2022/12/01 01:32:07;;;;;;;53.33;30.53;;;;;;;5.70;100.00;102591.00;5233036;28;20104;-68
2022/12/01 01:34:39;;;;;;;50.67;31.40;;;;;;;5.76;100.00;102595.28;5232622;28;20116;-68
2022/12/01 01:37:10;;;;;;;57.40;28.87;;;;;;;5.68;100.00;102591.03;5231672;28;20484;-67
2022/12/01 01:39:41;;;;;;;55.23;30.17;;;;;;;5.77;100.00;102604.78;5240777;28;20021;-68
2022/12/01 01:42:13;;;;;;;55.23;30.83;;;;;;;5.71;100.00;102599.66;5241651;28;20028;-68
2022/12/01 01:44:57;;;;;;;48.87;28.40;;;;;;;5.80;100.00;102608.22;5248038;28;20028;-68
2022/12/01 01:47:35;;;;;;;48.28;29.80;;;;;;;5.76;100.00;102606.50;5250641;28;20075;-68
2022/12/01 01:50:10;;;;;;;46.17;27.37;;;;;;;5.72;100.00;102609.19;5236032;28;20554;-68
2022/12/01 01:52:50;;;;;;;50.95;29.50;;;;;;;5.78;100.00;102611.69;5236947;28;20021;-68
2022/12/01 01:55:21;;;;;;;49.00;27.73;;;;;;;5.68;100.00;102603.16;5235472;28;20115;-68
2022/12/01 01:57:52;;;;;;;52.73;30.80;;;;;;;5.67;100.00;102599.69;5256145;28;20029;-68
2022/12/01 02:00:24;;;;;;;54.20;30.23;;;;;;;5.74;100.00;102607.44;5254165;28;20594;-68
2022/12/01 02:02:56;;;;;;;52.70;28.30;;;;;;;5.70;100.00;102604.00;5236580;28;20045;-67
2022/12/01 02:05:32;;;;;;;50.17;29.33;;;;;;;5.66;100.00;102600.56;5274982;23;21655;-68
2022/12/01 02:08:04;;;;;;;53.83;27.90;;;;;;;5.63;100.00;102602.34;5190495;28;20424;-67
2022/12/01 02:10:57;;;;;;;52.60;29.63;;;;;;;5.73;100.00;102606.56;5187198;28;20033;-68
2022/12/01 02:14:06;;;;;;;49.90;28.07;;;;;;;5.73;100.00;102601.34;5192708;28;20030;-67
2022/12/01 02:16:50;;;;;;;50.80;30.33;;;;;;;5.68;100.00;102600.53;5185433;28;20493;-67
2022/12/01 02:19:40;;;;;;;52.33;28.17;;;;;;;5.74;100.00;102607.44;5190989;28;20030;-68
2022/12/01 02:22:30;;;;;;;52.17;28.97;;;;;;;5.77;100.00;102602.19;5192496;28;20416;-68
2022/12/01 02:25:38;;;;;;;51.17;29.63;;;;;;;5.78;100.00;102606.50;5190695;28;20030;-68
2022/12/01 02:28:23;;;;;;;50.07;29.50;;;;;;;5.81;100.00;102598.69;5191448;28;20306;-67
2022/12/01 02:31:04;;;;;;;;;;;;;;;5.93;100.00;102603.72;5190467;28;20045;-67
2022/12/01 02:33:48;;;;;;;50.80;28.60;;;;;;;5.74;100.00;102605.66;5191425;28;20357;-68
2022/12/01 02:36:33;;;;;;;54.28;30.15;;;;;;;5.71;100.00;102602.28;5192156;28;20321;-67
2022/12/01 02:39:09;;;;;;;49.13;29.27;;;;;;;5.74;100.00;102608.25;5189234;28;20312;-68
2022/12/01 02:41:53;;;;;;;51.83;30.23;;;;;;;5.63;100.00;102599.72;5190302;28;20030;-68
2022/12/01 02:44:32;;;;;;;49.43;29.70;;;;;;;5.60;100.00;102599.78;5190857;28;20132;-67
2022/12/01 02:47:18;;;;;;;60.73;33.90;;;;;;;5.59;100.00;102605.84;5191807;28;20027;-68
2022/12/01 02:49:52;;;;;;;61.00;32.40;;;;;;;5.60;100.00;102599.78;5190896;28;20019;-67
2022/12/01 02:52:25;;;;;;;53.63;31.48;;;;;;;5.55;100.00;102603.28;5187154;28;20141;-68
2022/12/01 02:54:57;;;;;;;57.33;33.20;;;;;;;5.56;100.00;102599.81;5190023;28;20041;-68
2022/12/01 02:57:29;;;;;;;59.80;35.60;;;;;;;5.62;100.00;102605.81;5191834;28;20477;-68
2022/12/01 03:00:01;;;;;;;58.03;31.07;;;;;;;5.65;100.00;102605.78;5192178;28;20045;-68
2022/12/01 03:02:59;;;;;;;58.20;33.03;;;;;;;5.75;100.00;102602.22;5190990;28;20050;-68
2022/12/01 03:05:47;;;;;;;54.57;29.73;;;;;;;5.75;100.00;102610.00;5191026;28;20029;-68
2022/12/01 03:08:29;;;;;;;52.67;29.90;;;;;;;5.70;100.00;102606.59;5178508;28;20511;-67
2022/12/01 03:11:01;;;;;;;56.13;30.23;;;;;;;5.60;100.00;102610.16;5190913;28;20027;-68
2022/12/01 03:13:52;;;;;;;51.67;30.97;;;;;;;5.61;100.00;102611.88;5191028;28;20116;-68
2022/12/01 03:16:35;;;;;;;57.37;31.93;;;;;;;5.67;100.00;102607.47;5191278;28;20038;-67
2022/12/01 03:19:21;;;;;;;60.23;30.40;;;;;;;5.67;100.00;102601.44;5191155;28;20037;-68
2022/12/01 03:22:03;;;;;;;55.33;31.10;;;;;;;5.60;100.00;102610.16;5191087;28;20080;-69
2022/12/01 03:24:37;;;;;;;53.13;31.27;;;;;;;5.63;100.00;102604.94;5190943;28;20027;-69
2022/12/01 03:27:12;;;;;;;52.15;30.77;;;;;;;5.67;100.00;102601.44;5188957;28;20548;-68
2022/12/01 03:29:47;;;;;;;51.23;30.67;;;;;;;5.67;100.00;102607.47;5190622;28;20033;-68
2022/12/01 03:32:28;;;;;;;52.93;31.17;;;;;;;5.71;100.00;102608.31;5191503;28;20581;-68
2022/12/01 03:35:15;;;;;;;48.73;30.70;;;;;;;5.72;100.00;102603.97;5189726;28;20477;-67
2022/12/01 03:37:54;;;;;;;48.93;29.37;;;;;;;5.65;100.00;102597.97;5189920;28;20038;-69
2022/12/01 03:40:29;;;;;;;45.93;28.87;;;;;;;5.54;100.00;102606.75;5191225;28;20033;-68
2022/12/01 03:43:06;;;;;;;52.55;29.65;;;;;;;5.71;100.00;102602.28;5193459;28;20037;-68
2022/12/01 03:45:57;;;;;;;45.37;29.63;;;;;;;5.71;100.00;102602.28;5192367;28;20022;-69
2022/12/01 03:51:39;;;;;;;49.30;28.87;;;;;;;5.71;100.00;102600.50;4869417;23;20540;-68
2022/12/01 03:54:29;;;;;;;49.27;30.33;;;;;;;5.68;100.00;102605.75;5170612;28;20049;-67
2022/12/01 03:57:04;;;;;;;44.50;28.30;;;;;;;5.57;100.00;102598.91;5173244;28;20056;-68
2022/12/01 03:59:37;;;;;;;49.90;30.23;;;;;;;5.54;100.00;102598.97;5174834;28;20057;-68
2022/12/01 04:02:08;;;;;;;51.97;31.47;;;;;;;5.62;100.00;102605.81;5173447;28;20440;-67
2022/12/01 04:04:39;;;;;;;53.47;32.87;;;;;;;5.65;100.00;102603.19;5174794;28;20030;-67
2022/12/01 04:07:12;;;;;;;48.80;30.20;;;;;;;5.65;100.00;102610.97;5172676;28;20026;-67
2022/12/01 04:09:43;;;;;;;47.93;28.90;;;;;;;5.59;100.00;102603.22;5174901;28;20049;-68
2022/12/01 04:12:29;;;;;;;46.07;29.33;;;;;;;5.70;100.00;102611.78;5174593;28;20027;-67
2022/12/01 04:15:06;;;;;;;47.97;28.83;;;;;;;5.68;100.00;102611.81;5167254;28;20027;-67
2022/12/01 04:17:38;;;;;;;45.60;30.37;;;;;;;5.63;100.00;102602.34;5174221;28;20126;-67
2022/12/01 04:20:15;;;;;;;46.37;29.63;;;;;;;5.67;100.00;102612.69;5174199;28;20109;-67
2022/12/01 04:22:47;;;;;;;47.73;30.10;;;;;;;5.75;100.00;102615.22;5175352;28;20034;-68
2022/12/01 04:25:18;;;;;;;48.93;29.10;;;;;;;5.64;100.00;102611.84;5175601;28;20035;-67
2022/12/01 04:27:49;;;;;;;44.43;27.40;;;;;;;5.66;100.00;102610.09;5174545;28;20043;-67
2022/12/01 04:30:20;;;;;;;46.57;28.60;;;;;;;5.59;100.00;102606.69;5175657;28;20031;-68
2022/12/01 04:32:52;;;;;;;45.00;28.10;;;;;;;5.77;100.00;102612.59;5174753;28;20035;-67
2022/12/01 04:35:23;;;;;;;46.20;30.50;;;;;;;5.68;100.00;102611.81;5174532;28;20037;-67
2022/12/01 04:37:54;;;;;;;49.13;29.97;;;;;;;5.67;100.00;102612.69;5175078;28;20060;-67
2022/12/01 04:40:25;;;;;;;45.73;28.40;;;;;;;5.66;100.00;102610.09;5175158;28;20382;-67
2022/12/01 04:42:57;;;;;;;47.07;28.60;;;;;;;5.59;100.00;102603.22;5173646;28;20548;-67
2022/12/01 04:45:28;;;;;;;49.60;30.37;;;;;;;5.75;100.00;102610.00;5172133;28;20073;-67
2022/12/01 04:47:59;;;;;;;47.83;29.53;;;;;;;5.64;100.00;102611.84;5172827;28;20034;-67
2022/12/01 04:50:30;;;;;;;45.53;28.70;;;;;;;5.75;100.00;102609.13;5171215;28;20074;-67
2022/12/01 04:53:03;;;;;;;45.67;29.50;;;;;;;5.59;100.00;102608.44;5173819;28;20482;-67
2022/12/01 04:55:38;;;;;;;48.13;29.33;;;;;;;5.68;100.00;102610.94;5173965;28;20106;-67
2022/12/01 04:58:09;;;;;;;43.80;29.77;;;;;;;5.54;100.00;102609.34;5174572;28;20027;-68
2022/12/01 05:00:40;;;;;;;48.43;29.30;;;;;;;5.64;100.00;102611.84;5169624;28;20035;-68
2022/12/01 05:03:11;;;;;;;42.80;28.53;;;;;;;5.62;100.00;102608.41;5155131;28;20033;-68
2022/12/01 05:05:43;;;;;;;47.77;30.37;;;;;;;5.57;100.00;102606.72;5169669;28;20035;-68
2022/12/01 05:08:14;;;;;;;42.03;29.47;;;;;;;5.65;100.00;102609.25;5174458;28;20054;-68
2022/12/01 05:10:45;;;;;;;46.47;29.47;;;;;;;5.60;100.00;102600.66;5173491;28;20034;-68
2022/12/01 05:13:18;;;;;;;49.07;29.67;;;;;;;5.62;100.00;102609.25;5173997;28;20034;-68
2022/12/01 05:15:49;;;;;;;48.90;29.50;;;;;;;5.60;100.00;102600.66;5172883;28;20034;-68
2022/12/01 05:18:21;;;;;;;47.33;29.53;;;;;;;5.63;100.00;102608.41;5174025;28;20031;-69
2022/12/01 05:20:58;;;;;;;55.97;31.97;;;;;;;5.50;100.00;102606.81;5172371;28;20034;-68
2022/12/01 05:23:32;;;;;;;43.97;26.63;;;;;;;5.60;100.00;102603.25;5173909;28;20508;-68
2022/12/01 05:26:05;;;;;;;50.60;32.40;;;;;;;5.59;100.00;102611.03;5173529;28;20591;-68
2022/12/01 05:28:37;;;;;;;47.80;29.73;;;;;;;5.60;100.00;102604.97;5174387;28;20057;-68
2022/12/01 05:31:08;;;;;;;44.03;27.53;;;;;;;5.63;100.00;102610.13;5174058;28;20027;-68
2022/12/01 05:33:40;;;;;;;42.77;28.10;;;;;;;5.53;100.00;102618.00;5174682;28;20022;-68
2022/12/01 05:36:11;;;;;;;42.67;28.27;;;;;;;5.60;100.00;102621.44;5173205;28;20413;-68
2022/12/01 05:38:42;;;;;;;44.00;27.77;;;;;;;5.50;100.00;102619.81;5174001;28;20035;-70
2022/12/01 05:41:14;;;;;;;46.50;29.23;;;;;;;5.47;100.00;102622.41;5174610;28;20042;-68
2022/12/01 05:43:45;;;;;;;46.90;29.17;;;;;;;5.61;100.00;102617.06;5174238;28;20026;-69
2022/12/01 05:46:17;;;;;;;53.77;31.67;;;;;;;5.56;100.00;102625.81;5173079;28;20030;-68
2022/12/01 05:48:48;;;;;;;42.90;28.53;;;;;;;5.59;100.00;102618.81;5174407;28;20045;-68
2022/12/01 05:51:19;;;;;;;47.30;29.87;;;;;;;5.47;100.00;102615.50;5173452;28;20046;-68
2022/12/01 05:53:51;;;;;;;41.07;27.63;;;;;;;5.55;100.00;102615.44;5173620;28;20039;-68
2022/12/01 05:56:22;;;;;;;42.23;26.53;;;;;;;5.48;100.00;102622.41;5174004;28;20030;-69
2022/12/01 05:58:53;;;;;;;45.37;29.37;;;;;;;5.54;100.00;102621.47;5169497;28;20045;-68
2022/12/01 06:01:24;;;;;;;43.60;28.53;;;;;;;5.60;100.00;102615.38;5173766;28;20066;-69
2022/12/01 06:03:56;;;;;;;46.53;27.83;;;;;;;5.61;100.00;102615.34;5164645;28;20027;-68
2022/12/01 06:06:27;;;;;;;41.10;27.30;;;;;;;5.59;100.00;102631.81;5173369;28;20031;-69
2022/12/01 06:08:58;;;;;;;43.80;27.97;;;;;;;5.54;100.00;102624.09;5172115;28;20064;-69
2022/12/01 06:11:29;;;;;;;42.47;27.40;;;;;;;5.56;100.00;102625.81;5172474;28;20043;-68
2022/12/01 06:14:01;;;;;;;42.17;26.93;;;;;;;5.59;100.00;102629.22;5171025;28;20031;-68
2022/12/01 06:16:32;;;;;;;46.80;29.50;;;;;;;5.49;100.00;102629.34;5160401;28;20027;-68
2022/12/01 06:19:03;;;;;;;44.77;28.40;;;;;;;5.49;100.00;102629.34;5173782;28;20077;-69
2022/12/01 06:21:35;;;;;;;43.70;28.63;;;;;;;5.61;100.00;102635.28;5172730;28;20023;-69
2022/12/01 06:24:06;;;;;;;44.03;28.27;;;;;;;5.53;100.00;102625.81;5168119;28;20038;-69
2022/12/01 06:26:37;;;;;;;46.50;29.30;;;;;;;5.51;100.00;102627.59;5168317;28;20027;-69
2022/12/01 06:29:09;;;;;;;45.83;28.40;;;;;;;5.57;100.00;102624.91;5175167;28;20035;-69
2022/12/01 06:31:41;;;;;;;50.00;31.17;;;;;;;5.50;100.00;102632.81;5176189;28;20030;-68
2022/12/01 06:34:12;;;;;;;52.37;30.63;;;;;;;5.60;100.00;102634.44;5171908;28;20027;-69
2022/12/01 06:36:43;;;;;;;46.57;29.67;;;;;;;5.42;100.00;102620.72;5172919;28;20050;-69
2022/12/01 06:39:15;;;;;;;45.97;28.80;;;;;;;5.49;100.00;102626.72;5175960;28;20034;-68
2022/12/01 06:41:46;;;;;;;46.60;29.73;;;;;;;5.47;100.00;102630.22;5174366;28;20025;-69
2022/12/01 06:44:18;;;;;;;50.63;29.67;;;;;;;5.56;100.00;102625.81;5177054;28;20050;-68
2022/12/01 06:46:52;;;;;;;46.73;26.87;;;;;;;5.54;100.00;102627.56;5174906;28;20034;-69
2022/12/01 06:49:23;;;;;;;47.90;29.33;;;;;;;5.52;100.00;102624.09;5176369;28;20110;-69
2022/12/01 06:51:54;;;;;;;46.50;28.77;;;;;;;5.56;100.00;102625.81;5174104;28;20193;-68
2022/12/01 06:54:26;;;;;;;45.73;28.50;;;;;;;5.59;100.00;102637.03;5176300;28;20045;-68
2022/12/01 06:56:57;;;;;;;44.60;27.23;;;;;;;5.51;100.00;102630.19;5174984;28;20031;-68
2022/12/01 06:59:28;;;;;;;47.23;29.03;;;;;;;5.50;100.00;102640.59;5176683;28;20035;-68
2022/12/01 07:02:01;;;;;;;49.00;27.77;;;;;;;5.40;100.00;102651.06;5171069;28;20114;-69
2022/12/01 07:04:33;;;;;;;46.27;27.20;;;;;;;5.36;100.00;102644.16;5167086;28;20070;-68
2022/12/01 07:07:05;;;;;;;47.37;28.27;;;;;;;5.36;100.00;102651.13;5170346;28;20484;-68
2022/12/01 07:09:36;;;;;;;43.97;28.10;;;;;;;5.43;100.00;102652.75;5176385;28;20022;-69
2022/12/01 07:12:07;;;;;;;49.30;29.97;;;;;;;5.41;100.00;102660.56;5175770;28;20023;-69
2022/12/01 07:14:41;;;;;;;48.97;27.93;;;;;;;5.40;100.00;102665.78;5174712;28;20382;-69
2022/12/01 07:17:12;;;;;;;44.73;27.53;;;;;;;5.39;100.00;102669.28;5175378;28;20027;-68
2022/12/01 07:19:43;;;;;;;48.00;27.67;;;;;;;5.45;100.00;102664.88;5170000;28;20030;-69
2022/12/01 07:22:14;;;;;;;49.97;28.33;;;;;;;5.40;100.00;102668.38;5173288;28;20019;-68
2022/12/01 07:24:46;;;;;;;42.43;26.23;;;;;;;5.45;100.00;102671.81;5171046;28;20037;-69
2022/12/01 07:27:17;;;;;;;48.37;27.67;;;;;;;5.44;100.00;102673.56;5171785;28;20027;-69
2022/12/01 07:29:49;;;;;;;54.37;28.00;;;;;;;5.49;100.00;102673.50;5169994;28;20068;-68
2022/12/01 07:32:20;;;;;;;44.10;29.30;;;;;;;5.42;100.00;102677.03;5172698;28;20481;-67
2022/12/01 07:34:51;;;;;;;47.10;26.07;;;;;;;5.45;100.00;102677.00;5172031;28;20540;-68
2022/12/01 07:37:22;;;;;;;47.03;25.87;;;;;;;5.53;100.00;102676.94;5175080;28;20496;-68
2022/12/01 07:39:54;;;;;;;44.40;25.90;;;;;;;5.45;100.00;102672.69;5170156;28;20046;-67
2022/12/01 07:42:25;;;;;;;46.90;28.23;;;;;;;5.35;100.00;102678.81;5173634;28;20034;-68
2022/12/01 07:44:56;;;;;;;46.03;28.53;;;;;;;5.48;100.00;102673.53;5171322;28;20082;-67
2022/12/01 07:47:27;;;;;;;44.77;26.60;;;;;;;5.46;100.00;102673.53;5156899;28;20051;-68
2022/12/01 07:49:59;;;;;;;49.27;29.20;;;;;;;5.38;100.00;102672.72;5156879;28;20034;-68
2022/12/01 07:52:30;;;;;;;44.67;27.50;;;;;;;5.46;100.00;102686.53;5167050;28;20069;-68
2022/12/01 07:55:01;;;;;;;45.73;28.30;;;;;;;5.52;100.00;102690.81;5162640;28;20034;-68
2022/12/01 07:57:33;;;;;;;51.90;28.17;;;;;;;5.49;100.00;102683.91;5166064;28;20126;-67
2022/12/01 08:00:05;;;;;;;48.53;27.60;;;;;;;5.49;100.00;102685.63;5157495;28;20027;-66
2022/12/01 08:02:36;;;;;;;48.33;29.40;;;;;;;5.52;100.00;102688.22;5156690;28;20051;-66
2022/12/01 08:05:07;;;;;;;49.37;29.47;;;;;;;5.50;100.00;102685.63;5166961;28;20030;-70
2022/12/01 08:07:39;;;;;;;47.57;29.50;;;;;;;5.52;100.00;102691.69;5174941;28;20038;-68
2022/12/01 08:10:10;;;;;;;43.73;28.17;;;;;;;5.53;100.00;102695.16;5173972;28;20041;-67
2022/12/01 08:12:41;;;;;;;43.40;28.53;;;;;;;5.47;100.00;102696.06;5174590;28;20054;-68
2022/12/01 08:15:13;;;;;;;46.60;27.63;;;;;;;5.51;100.00;102702.97;5172217;28;20026;-68
2022/12/01 08:17:44;;;;;;;44.47;28.83;;;;;;;5.66;100.00;102703.69;5170362;28;20462;-68
2022/12/01 08:20:16;;;;;;;47.00;29.40;;;;;;;5.55;100.00;102696.84;5172486;28;20038;-68
2022/12/01 08:22:47;;;;;;;46.13;28.13;;;;;;;5.56;100.00;102713.31;5170765;28;20117;-67
2022/12/01 08:25:18;;;;;;;50.57;29.67;;;;;;;5.56;100.00;102697.72;5174315;28;20023;-67
2022/12/01 08:27:49;;;;;;;48.03;29.37;;;;;;;5.55;100.00;102696.00;5170376;28;20367;-68
2022/12/01 08:30:21;;;;;;;47.97;29.10;;;;;;;5.50;100.00;102703.81;5172695;28;20436;-68
2022/12/01 08:32:54;;;;;;;48.13;28.17;;;;;;;5.53;100.00;102710.75;5171230;28;20489;-68
2022/12/01 08:35:26;;;;;;;43.43;28.43;;;;;;;5.61;100.00;102713.25;5172117;28;20034;-67
2022/12/01 08:37:57;;;;;;;44.93;27.00;;;;;;;5.50;100.00;102713.38;5170640;28;20026;-68
2022/12/01 08:40:29;;;;;;;39.70;27.03;;;;;;;5.53;100.00;102714.19;5172528;28;20027;-68
2022/12/01 08:43:00;;;;;;;48.50;28.83;;;;;;;5.62;100.00;102712.41;5170640;28;20027;-68
2022/12/01 08:45:32;;;;;;;45.37;29.73;;;;;;;5.61;100.00;102714.13;5172836;28;20074;-68
2022/12/01 08:48:03;;;;;;;43.63;28.63;;;;;;;5.62;100.00;102712.41;5170816;28;20038;-68
2022/12/01 08:50:34;;;;;;;43.20;27.57;;;;;;;5.60;100.00;102716.75;5169695;28;20174;-68
2022/12/01 08:53:05;;;;;;;41.27;25.83;;;;;;;5.61;100.00;102710.66;5171584;28;20070;-67
2022/12/01 08:55:37;;;;;;;45.83;28.70;;;;;;;5.75;100.00;102714.00;5171593;28;20019;-68
2022/12/01 08:58:08;;;;;;;45.30;28.40;;;;;;;5.71;100.00;102709.69;5171400;28;20039;-68
2022/12/01 09:00:39;;;;;;;46.97;29.70;;;;;;;5.64;100.00;102710.63;5170616;28;20043;-68
2022/12/01 09:03:10;;;;;;;48.93;28.07;;;;;;;5.62;100.00;102723.63;5171731;28;20043;-68
2022/12/01 09:05:41;;;;;;;45.20;27.77;;;;;;;5.67;100.00;102713.22;5169473;28;20031;-68
2022/12/01 09:08:31;;;;;;;44.93;28.30;;;;;;;5.74;100.00;102711.44;5173351;28;20038;-67
2022/12/01 09:11:06;;;;;;;44.47;29.33;;;;;;;5.81;100.00;102708.75;5172389;28;20035;-68
2022/12/01 09:13:39;;;;;;;48.00;29.57;;;;;;;5.79;100.00;102710.50;5174325;28;20493;-68
2022/12/01 09:16:13;;;;;;;45.93;29.53;;;;;;;5.83;100.00;102715.69;5173601;28;20109;-68
2022/12/01 09:18:45;;;;;;;43.17;28.83;;;;;;;5.89;100.00;102715.63;5173871;28;20614;-68
2022/12/01 09:21:21;;;;;;;41.77;28.33;;;;;;;5.98;100.00;102715.53;5172949;28;20027;-68
2022/12/01 09:23:53;;;;;;;43.20;28.53;;;;;;;5.95;100.00;102725.97;5173713;28;20378;-68
2022/12/01 09:26:24;;;;;;;40.43;26.40;;;;;;;5.91;100.00;102716.47;5172434;28;20027;-68
2022/12/01 09:28:58;;;;;;;42.17;29.03;;;;;;;5.97;100.00;102719.00;5173806;28;20038;-68
2022/12/01 09:31:29;;;;;;;49.92;29.30;;;;;;;6.01;100.00;102723.28;5173743;28;20437;-68
2022/12/01 09:34:03;;;;;;;45.33;28.63;;;;;;;5.91;100.00;102708.66;5173327;28;20030;-68
2022/12/01 09:36:36;;;;;;;46.80;30.80;;;;;;;6.07;100.00;102734.53;5173686;28;20109;-68
2022/12/01 09:39:11;;;;;;;46.43;29.00;;;;;;;6.00;100.00;102729.38;5172091;28;20034;-68
2022/12/01 09:41:48;;;;;;;48.03;29.47;;;;;;;6.05;100.00;102727.63;5173787;28;20454;-68
2022/12/01 09:44:33;;;;;;;41.87;28.50;;;;;;;6.10;100.00;102729.31;5173480;28;20469;-68
2022/12/01 09:47:07;;;;;;;;;;;;;;;6.28;100.00;102729.09;5173939;28;20412;-68
2022/12/01 09:49:55;;;;;;;45.50;29.60;;;;;;;6.17;100.00;102725.78;5171436;28;20431;-68
2022/12/01 09:52:39;;;;;;;45.30;29.23;;;;;;;6.21;100.00;102727.47;5172307;28;20490;-68
2022/12/01 09:55:13;;;;;;;43.70;29.73;;;;;;;6.18;100.00;102724.88;5172966;28;20319;-69
2022/12/01 09:57:53;;;;;;;43.00;29.45;;;;;;;6.27;100.00;102718.72;5173912;28;20069;-68
2022/12/01 10:00:27;;;;;;;42.30;28.47;;;;;;;6.13;100.00;102718.88;5176220;28;20027;-68
2022/12/01 10:03:08;;;;;;;;;;;;;;;6.44;100.00;102723.72;5177617;28;20506;-68
2022/12/01 10:05:56;;;;;;;45.80;29.23;;;;;;;6.39;100.00;102725.50;5176163;28;19918;-68
2022/12/01 10:08:32;;;;;;;44.73;29.33;;;;;;;6.21;100.00;102711.84;5176832;28;20035;-68
2022/12/01 10:11:32;;;;;;;43.93;30.07;;;;;;;6.34;100.00;102703.88;5175744;28;20070;-68
2022/12/01 10:14:08;;;;;;;45.33;30.63;;;;;;;6.33;100.00;102707.38;5176464;28;20491;-68
2022/12/01 10:16:48;;;;;;;45.53;30.73;;;;;;;6.37;100.00;102716.88;5177057;28;20085;-68
2022/12/01 10:19:37;;;;;;;45.37;29.40;;;;;;;6.43;100.00;102710.72;5176017;28;20441;-68
2022/12/01 10:22:22;;;;;;;47.40;30.17;;;;;;;6.45;100.00;102715.03;5177177;28;20470;-68
2022/12/01 10:25:04;;;;;;;48.10;30.67;;;;;;;6.48;100.00;102708.94;5176737;28;20045;-68
2022/12/01 10:27:48;;;;;;;48.87;31.93;;;;;;;6.45;100.00;102707.25;5177364;28;20413;-68
2022/12/01 10:30:22;;;;;;;50.80;30.47;;;;;;;6.47;100.00;102707.22;5176935;28;20133;-68
2022/12/01 10:33:18;;;;;;;48.17;30.00;;;;;;;6.59;100.00;102706.19;5176358;28;20031;-68
2022/12/01 10:35:50;;;;;;;49.33;31.03;;;;;;;6.44;100.00;102699.44;5175481;28;20030;-68
2022/12/01 10:38:25;;;;;;;50.13;32.37;;;;;;;6.51;100.00;102691.53;5176832;28;20063;-68
2022/12/01 10:41:00;;;;;;;45.33;29.60;;;;;;;6.38;100.00;102679.56;5176633;28;20078;-68
2022/12/01 10:43:39;;;;;;;46.70;30.40;;;;;;;6.52;100.00;102689.78;5176534;28;20033;-68
2022/12/01 10:46:28;;;;;;;48.47;30.40;;;;;;;6.60;100.00;102684.47;5176258;28;20118;-68
2022/12/01 10:49:07;;;;;;;49.60;30.40;;;;;;;6.62;100.00;102685.31;5174582;28;20030;-69
2022/12/01 10:52:06;;;;;;;50.10;30.97;;;;;;;6.74;100.00;102685.16;5175998;28;20051;-68
2022/12/01 10:54:39;;;;;;;46.13;31.70;;;;;;;6.70;100.00;102687.84;5173488;28;20398;-68
2022/12/01 10:57:15;;;;;;;50.10;32.00;;;;;;;6.74;100.00;102687.75;5175691;28;20034;-68
2022/12/01 10:59:46;;;;;;;51.60;31.27;;;;;;;6.80;100.00;102681.63;5176063;28;20027;-68
2022/12/01 11:02:24;;;;;;;49.70;31.40;;;;;;;6.68;100.00;102685.25;5176832;28;20019;-67
2022/12/01 11:05:18;;;;;;;42.93;30.43;;;;;;;6.87;100.00;102682.38;5174955;28;20027;-68
2022/12/01 11:07:49;;;;;;;49.20;28.77;;;;;;;6.79;100.00;102677.28;5176107;28;20105;-68
2022/12/01 11:10:36;;;;;;;46.70;31.13;;;;;;;6.97;100.00;102672.69;5174860;28;20023;-67
2022/12/01 11:13:29;;;;;;;44.60;29.67;;;;;;;6.91;100.00;102681.47;5163363;28;20460;-67
2022/12/01 11:16:03;;;;;;;49.97;30.80;;;;;;;6.88;100.00;102679.75;5169779;28;20039;-67
2022/12/01 11:18:37;;;;;;;47.20;29.17;;;;;;;6.91;100.00;102681.47;5173636;28;20041;-68
2022/12/01 11:21:08;;;;;;;47.92;33.60;;;;;;;6.96;100.00;102674.44;5171587;28;20429;-68
2022/12/01 11:23:48;;;;;;;47.37;30.93;;;;;;;6.98;100.00;102679.63;5175034;28;20019;-67
2022/12/01 11:26:23;;;;;;;46.93;30.03;;;;;;;6.94;100.00;102671.00;5172790;28;20031;-68
2022/12/01 11:28:58;;;;;;;49.13;29.67;;;;;;;6.94;100.00;102670.13;5172549;28;20118;-67
2022/12/01 11:31:49;;;;;;;45.50;30.13;;;;;;;7.03;100.00;102670.00;5171644;28;20630;-68
2022/12/01 11:34:27;;;;;;;46.30;29.40;;;;;;;6.94;100.00;102659.72;5173979;28;20027;-68
2022/12/01 11:37:08;;;;;;;46.87;30.20;;;;;;;7.07;100.00;102670.81;5174935;28;20077;-68
2022/12/01 11:39:42;;;;;;;44.00;29.07;;;;;;;6.87;100.00;102658.94;5173100;28;20023;-68
2022/12/01 11:42:18;;;;;;;;;;;;;;;7.14;100.00;102657.66;5171788;28;20366;-68
2022/12/01 11:44:53;;;;;;;43.60;27.87;;;;;;;7.07;100.00;102652.59;5173459;28;19914;-68
2022/12/01 11:47:26;;;;;;;45.60;30.57;;;;;;;6.91;100.00;102645.00;5172569;28;20080;-67